^^
Datos históricos de la estación: Murcia-Puente Tocinos
Diario Informe para Julio 18, 2019 Unidades:  Métrico    Ingés   Ambas
Diario Semanal Mensual Anual
  Máxima: Mínima: Promedio:
Temperatura: 30.6 °C 17.7 °C 23.8 °C
Punto de rocio: 17.3 °C 11 °C 13.9 °C
Humedad: 84% 31.2% 57%
Velocidad viento: 19.8km/h 0km/h 9km/h
Racha viento: 35.4km/h - -
Viento- - ESE
Presión: 1014.9 hPa 1010.7 hPa -
Precipitación: 0.0 mm    
 
 
Tabla de datos para Julio 18, 2019
Hora Temperatura Punto de rocio Presión Viento Velocidad viento Racha viento Humedad Intensidad lluvia(por hora) Nubes
00:04 20.5 °C 15.8 °C 1014.9 hPa NNE 10.3 km/h 19.3 km/h 74.4% 0.0 mm
00:09 20.4 °C 15.8 °C 1014.9 hPa NNE 10.2 km/h 16.1 km/h 75% 0.0 mm
00:14 20.3 °C 15.9 °C 1014.9 hPa NNE 10 km/h 14.8 km/h 75.7% 0.0 mm
00:19 20.3 °C 15.9 °C 1014.9 hPa NE 9.5 km/h 14.8 km/h 76% 0.0 mm
00:24 20.2 °C 15.9 °C 1014.8 hPa NE 8.7 km/h 20.9 km/h 76% 0.0 mm
00:29 20.2 °C 15.8 °C 1014.8 hPa NE 9.2 km/h 20.9 km/h 75.8% 0.0 mm
00:34 20.2 °C 15.8 °C 1014.9 hPa NE 10.3 km/h 16.1 km/h 76% 0.0 mm
00:39 20.1 °C 15.9 °C 1014.9 hPa NE 9.6 km/h 14.8 km/h 76.9% 0.0 mm
00:44 20.1 °C 16.1 °C 1014.9 hPa NE 8.4 km/h 14.5 km/h 78% 0.0 mm
00:49 19.9 °C 16.2 °C 1014.9 hPa NE 8.4 km/h 14.5 km/h 79% 0.0 mm
00:54 19.9 °C 16.2 °C 1014.7 hPa NE 8.4 km/h 13 km/h 79.3% 0.0 mm
00:59 19.8 °C 16.2 °C 1014.7 hPa NE 8.1 km/h 15.6 km/h 80% 0.0 mm
01:04 19.7 °C 16.3 °C 1014.7 hPa NE 7.6 km/h 16.1 km/h 80.7% 0.0 mm
01:09 19.6 °C 16.2 °C 1014.5 hPa NE 8 km/h 16.1 km/h 81% 0.0 mm
01:14 19.6 °C 16.3 °C 1014.5 hPa NE 8.7 km/h 11.3 km/h 81.2% 0.0 mm
01:19 19.5 °C 16.3 °C 1014.5 hPa NE 8.3 km/h 13.7 km/h 82% 0.0 mm
01:24 19.4 °C 16.2 °C 1014.5 hPa NE 7.6 km/h 14.5 km/h 82% 0.0 mm
01:29 19.4 °C 16.4 °C 1014.5 hPa NE 7.9 km/h 12.9 km/h 82.9% 0.0 mm
01:34 19.3 °C 16.4 °C 1014.5 hPa NE 8.4 km/h 11.3 km/h 83% 0.0 mm
01:39 19.3 °C 16.3 °C 1014.5 hPa NE 7.4 km/h 11.3 km/h 82.8% 0.0 mm
01:44 19.3 °C 16.2 °C 1014.5 hPa NE 5.8 km/h 9.3 km/h 82% 0.0 mm
01:49 19.3 °C 16.3 °C 1014.5 hPa NE 5.1 km/h 9.7 km/h 82.6% 0.0 mm
01:54 19.2 °C 16.1 °C 1014.4 hPa NE 3.9 km/h 9.7 km/h 82.2% 0.0 mm
01:59 19.2 °C 16.2 °C 1014.4 hPa North 3.6 km/h 9.7 km/h 82.9% 0.0 mm
02:04 19.2 °C 16.2 °C 1014.4 hPa NE 3.2 km/h 7.6 km/h 83% 0.0 mm
02:09 19.1 °C 16.2 °C 1014.3 hPa NE 3.8 km/h 9.3 km/h 83% 0.0 mm
02:14 19 °C 16.1 °C 1014.3 hPa NE 5 km/h 9.7 km/h 82.9% 0.0 mm
02:19 18.9 °C 15.7 °C 1014.3 hPa NE 4.6 km/h 8 km/h 81.7% 0.0 mm
02:24 18.9 °C 15.5 °C 1014.3 hPa NE 3.9 km/h 7.6 km/h 80.8% 0.0 mm
02:29 18.9 °C 15.7 °C 1014.3 hPa NNE 3.9 km/h 8 km/h 81.4% 0.0 mm
02:34 18.9 °C 15.9 °C 1014.3 hPa NE 3.9 km/h 8 km/h 82.5% 0.0 mm
02:39 19 °C 16.2 °C 1014.3 hPa NE 3.6 km/h 8 km/h 84% 0.0 mm
02:44 19.1 °C 16.3 °C 1014.3 hPa NE 3.2 km/h 8 km/h 84% 0.0 mm
02:49 19.1 °C 16.3 °C 1014.3 hPa NE 2.1 km/h 4.8 km/h 84% 0.0 mm
02:54 19.1 °C 16.3 °C 1014.3 hPa Calm   4.8 km/h 84% 0.0 mm
02:59 19.1 °C 16.2 °C 1014.3 hPa Calm   4.8 km/h 83% 0.0 mm
03:04 19 °C 15.6 °C 1014.3 hPa Calm   3.2 km/h 81% 0.0 mm
03:09 18.9 °C 15.4 °C 1014.1 hPa Calm     80.1% 0.0 mm
03:14 18.9 °C 15.6 °C 1014.1 hPa Calm     81.1% 0.0 mm
03:19 19.1 °C 15.9 °C 1014.1 hPa Calm     82% 0.0 mm
03:24 19.1 °C 15.9 °C 1013.8 hPa Calm     82% 0.0 mm
03:29 19.2 °C 16 °C 1013.8 hPa Calm     82% 0.0 mm
03:34 19.2 °C 16.1 °C 1013.8 hPa Calm     82% 0.0 mm
03:39 19.2 °C 16.1 °C 1013.8 hPa Calm     82% 0.0 mm
03:44 19.2 °C 16.1 °C 1013.8 hPa Calm     82% 0.0 mm
03:49 19.1 °C 16 °C 1013.8 hPa Calm     82% 0.0 mm
03:54 19.1 °C 15.9 °C 1013.6 hPa Calm     82% 0.0 mm
03:59 19 °C 15.9 °C 1013.6 hPa Calm     82% 0.0 mm
04:04 18.9 °C 15.4 °C 1013.6 hPa Calm   5.8 km/h 80.1% 0.0 mm
04:09 18.7 °C 14.6 °C 1013.5 hPa ENE 1 km/h 6.4 km/h 77.1% 0.0 mm
04:14 18.5 °C 14.4 °C 1013.5 hPa ENE 2.9 km/h 6.4 km/h 76.9% 0.0 mm
04:19 18.5 °C 14.2 °C 1013.5 hPa ENE 2.7 km/h 4.8 km/h 76% 0.0 mm
04:24 18.4 °C 13.8 °C 1013.4 hPa ENE 2.2 km/h 3.7 km/h 74.5% 0.0 mm
04:29 18.5 °C 13.7 °C 1013.4 hPa ENE 1.5 km/h 3.2 km/h 73.5% 0.0 mm
04:34 18.5 °C 13.2 °C 1013.4 hPa Calm   7.6 km/h 71.3% 0.0 mm
04:39 18.4 °C 12.9 °C 1013.3 hPa ESE 1.3 km/h 8 km/h 70.1% 0.0 mm
04:44 18.4 °C 12.5 °C 1013.3 hPa SE 3.9 km/h 8.4 km/h 68.6% 0.0 mm
04:49 18.4 °C 12.4 °C 1013.4 hPa SE 4.1 km/h 8 km/h 68% 0.0 mm
04:54 18.3 °C 12.3 °C 1013.4 hPa SE 4.7 km/h 8 km/h 68% 0.0 mm
04:59 18.3 °C 12.3 °C 1013.4 hPa SE 4.7 km/h 8 km/h 68% 0.0 mm
05:04 18.3 °C 12.3 °C 1013.4 hPa SE 4.7 km/h 8 km/h 68% 0.0 mm
05:09 18.3 °C 12.3 °C 1013.3 hPa Sur 4.4 km/h 8.4 km/h 68% 0.0 mm
05:14 18.3 °C 12.3 °C 1013.3 hPa SSE 3.9 km/h 8 km/h 68% 0.0 mm
05:19 18.3 °C 12.3 °C 1013.4 hPa SSE 3.5 km/h 8 km/h 68% 0.0 mm
05:24 18.3 °C 12.3 °C 1013.4 hPa SSE 2.9 km/h   68% 0.0 mm
05:29 18.4 °C 12.4 °C 1013.4 hPa SSE 1.9 km/h   68% 0.0 mm
05:34 18.3 °C 12.5 °C 1013.4 hPa Calm     68.7% 0.0 mm
05:39 18.3 °C 12.5 °C 1013.3 hPa Calm     69% 0.0 mm
05:44 18.2 °C 12.6 °C 1013.3 hPa Calm     69.9% 0.0 mm
05:49 18.1 °C 12.6 °C 1013.4 hPa Calm   4.7 km/h 70% 0.0 mm
05:54 18.1 °C 12.6 °C 1013.4 hPa Calm   4.8 km/h 70% 0.0 mm
05:59 18 °C 12.6 °C 1013.4 hPa Calm   3.2 km/h 70.8% 0.0 mm
06:04 17.9 °C 12.6 °C 1013.5 hPa Calm     71% 0.0 mm
06:09 17.9 °C 12.7 °C 1013.5 hPa Calm     71.8% 0.0 mm
06:14 17.9 °C 12.8 °C 1013.5 hPa Calm     72% 0.0 mm
06:19 17.8 °C 12.7 °C 1013.6 hPa Calm     72% 0.0 mm
06:24 17.8 °C 13.1 °C 1013.6 hPa Calm     73.8% 0.0 mm
06:29 17.8 °C 13.4 °C 1013.6 hPa Calm     75.2% 0.0 mm
06:34 17.8 °C 12.7 °C 1013.6 hPa Calm   6.4 km/h 72.3% 0.0 mm
06:39 17.7 °C 12.2 °C 1013.6 hPa SSE 1.1 km/h 8 km/h 70.2% 0.0 mm
06:44 17.8 °C 12.3 °C 1013.6 hPa Sur 3.2 km/h 10 km/h 70% 0.0 mm
06:49 17.8 °C 12.3 °C 1013.7 hPa SSO 3.9 km/h 9.7 km/h 70% 0.0 mm
06:54 17.9 °C 12.3 °C 1013.7 hPa Sur 5 km/h 8 km/h 70% 0.0 mm
06:59 17.9 °C 12.3 °C 1013.7 hPa SSE 4.9 km/h 8 km/h 70% 0.0 mm
07:04 17.9 °C 12.3 °C 1013.7 hPa Sur 4.7 km/h 8 km/h 69.6% 0.0 mm
07:09 17.9 °C 12.1 °C 1013.7 hPa SSE 5.1 km/h 10.3 km/h 69% 0.0 mm
07:14 18 °C 12.2 °C 1013.7 hPa Sur 5.8 km/h 11.3 km/h 69% 0.0 mm
07:19 18 °C 12.2 °C 1013.9 hPa Sur 6 km/h 9.7 km/h 69% 0.0 mm
07:24 18 °C 12.4 °C 1013.9 hPa Sur 6.5 km/h 8.4 km/h 69.4% 0.0 mm
07:29 18.1 °C 12.5 °C 1013.9 hPa Sur 6.2 km/h 11.1 km/h 69.6% 0.0 mm
07:34 18.1 °C 12.3 °C 1013.9 hPa SSO 5.8 km/h 11.9 km/h 69% 0.0 mm
07:39 18.1 °C 12.3 °C 1013.9 hPa SSO 6.2 km/h 11.3 km/h 69% 0.0 mm
07:44 18.2 °C 12.2 °C 1013.9 hPa Sur 6.9 km/h 11.1 km/h 68.1% 0.0 mm
07:49 18.3 °C 12.1 °C 1014.0 hPa Sur 6.9 km/h 11.3 km/h 67.6% 0.0 mm
07:54 18.4 °C 12.1 °C 1014.0 hPa SSO 6.9 km/h 10 km/h 66.9% 0.0 mm
07:59 18.4 °C 12 °C 1014.0 hPa Sur 6.7 km/h 10 km/h 66.1% 0.0 mm
08:04 18.6 °C 12 °C 1014.2 hPa Sur 6.5 km/h 11.1 km/h 65.4% 0.0 mm
08:09 18.7 °C 11.9 °C 1014.2 hPa SSE 6.5 km/h 11.3 km/h 64.6% 0.0 mm
08:14 18.9 °C 11.9 °C 1014.2 hPa SSE 6.5 km/h 10 km/h 64% 0.0 mm
08:19 19.1 °C 11.9 °C 1014.2 hPa Sur 6.6 km/h 10 km/h 63.2% 0.0 mm
08:24 19.2 °C 11.7 °C 1014.1 hPa SSO 6.9 km/h 9.7 km/h 62% 0.0 mm
08:29 19.2 °C 11.8 °C 1014.1 hPa Sur 6.8 km/h 10 km/h 62% 0.0 mm
08:34 19.4 °C 11.7 °C 1014.2 hPa Sur 6.5 km/h 10 km/h 61% 0.0 mm
08:39 19.6 °C 11.9 °C 1014.2 hPa SSO 5.8 km/h 9.7 km/h 60.8% 0.0 mm
08:44 19.9 °C 11.6 °C 1014.2 hPa ONO 4.7 km/h 8.4 km/h 58.7% 0.0 mm
08:49 20.1 °C 11.4 °C 1014.2 hPa OSO 4.1 km/h 8 km/h 57.5% 0.0 mm
08:54 20.2 °C 11.3 °C 1014.1 hPa ONO 3.2 km/h 8 km/h 56.6% 0.0 mm
08:59 20.3 °C 11.2 °C 1014.1 hPa Oeste 3.2 km/h 8 km/h 55.6% 0.0 mm
09:04 20.5 °C 11.2 °C 1014.2 hPa ONO 3.2 km/h 8 km/h 55.2% 0.0 mm
09:09 20.7 °C 11 °C 1014.2 hPa ONO 3.2 km/h 8 km/h 54% 0.0 mm
09:14 20.8 °C 11.2 °C 1014.2 hPa NO 3.2 km/h 8 km/h 54% 0.0 mm
09:19 21.2 °C 11.2 °C 1014.2 hPa NO 3.1 km/h 8 km/h 53% 0.0 mm
09:24 21.3 °C 11.2 °C 1014.2 hPa Oeste 2.9 km/h 9.3 km/h 52.4% 0.0 mm
09:29 21.6 °C 11.1 °C 1014.2 hPa Oeste 3 km/h 9.7 km/h 51.4% 0.0 mm
09:34 21.7 °C 11.1 °C 1014.2 hPa Oeste 3.2 km/h 8 km/h 51.1% 0.0 mm
09:39 21.7 °C 11.1 °C 1014.1 hPa ONO 3.1 km/h 8 km/h 51% 0.0 mm
09:44 22.1 °C 11.3 °C 1014.1 hPa NO 2.9 km/h 5.6 km/h 50.4% 0.0 mm
09:49 22.7 °C 11.3 °C 1014.1 hPa SE 2.7 km/h 5.6 km/h 48.5% 0.0 mm
09:54 23.1 °C 11.4 °C 1014.1 hPa SE 2.2 km/h 5.6 km/h 47.6% 0.0 mm
09:59 23.5 °C 11.5 °C 1014.1 hPa NE 2.5 km/h 7.4 km/h 47% 0.0 mm
10:04 23.7 °C 11.4 °C 1014.2 hPa ENE 2.9 km/h 8 km/h 46.1% 0.0 mm
10:09 23.7 °C 11.4 °C 1014.2 hPa NNO 3.2 km/h 9.3 km/h 45.9% 0.0 mm
10:14 23.6 °C 11.3 °C 1014.2 hPa NNO 3.9 km/h 9.7 km/h 46% 0.0 mm
10:19 23.7 °C 11.5 °C 1014.2 hPa North 3.6 km/h 8.7 km/h 46.3% 0.0 mm
10:24 23.9 °C 11.3 °C 1013.9 hPa North 3.2 km/h 9.7 km/h 45.3% 0.0 mm
10:29 24.1 °C 11.4 °C 1013.9 hPa North 3.6 km/h 9.7 km/h 45% 0.0 mm
10:34 24.1 °C 11.5 °C 1013.9 hPa North 4.7 km/h 10.3 km/h 45.3% 0.0 mm
10:39 24.2 °C 11.6 °C 1013.9 hPa NNO 5 km/h 13.7 km/h 45.3% 0.0 mm
10:44 24.1 °C 12 °C 1013.9 hPa NNE 5.8 km/h 14.8 km/h 46.8% 0.0 mm
10:49 24.2 °C 12.2 °C 1013.9 hPa NE 6.2 km/h 14.5 km/h 46.9% 0.0 mm
10:54 24.4 °C 12.1 °C 1013.8 hPa NNE 6.9 km/h 14.8 km/h 46.3% 0.0 mm
10:59 24.6 °C 12.2 °C 1013.8 hPa NNE 6.9 km/h 15.6 km/h 46% 0.0 mm
11:04 24.8 °C 12.4 °C 1013.8 hPa NE 6.9 km/h 16.1 km/h 46.1% 0.0 mm
11:09 25.2 °C 12.5 °C 1013.8 hPa NE 6.9 km/h 13 km/h 45.4% 0.0 mm
11:14 25.3 °C 12.6 °C 1013.8 hPa NE 6.9 km/h 13 km/h 45.4% 0.0 mm
11:19 25.3 °C 12.8 °C 1013.8 hPa NE 6.8 km/h 14.8 km/h 45.7% 0.0 mm
11:24 25.6 °C 13.1 °C 1013.8 hPa NNE 6.5 km/h 14.8 km/h 46% 0.0 mm
11:29 25.6 °C 13.4 °C 1013.8 hPa NE 7.3 km/h 14.8 km/h 46.7% 0.0 mm
11:34 25.8 °C 13.6 °C 1013.8 hPa NE 8.7 km/h 16.7 km/h 46.9% 0.0 mm
11:39 26 °C 13.8 °C 1013.8 hPa ENE 8.1 km/h 16.1 km/h 47% 0.0 mm
11:44 26.2 °C 14 °C 1013.8 hPa NE 6.9 km/h 20.4 km/h 47% 0.0 mm
11:49 26.3 °C 14.1 °C 1013.8 hPa NE 7.6 km/h 20.9 km/h 47% 0.0 mm
11:54 26.4 °C 14.2 °C 1013.7 hPa NE 8.7 km/h 16.7 km/h 47% 0.0 mm
11:59 26.5 °C 14.3 °C 1013.7 hPa NNE 8.7 km/h 16.7 km/h 47% 0.0 mm
12:04 26.8 °C 14.5 °C 1013.7 hPa NE 8.7 km/h 17.2 km/h 47% 0.0 mm
12:09 27 °C 14.4 °C 1013.6 hPa North 8.6 km/h 17.7 km/h 46.2% 0.0 mm
12:14 27.1 °C 14.8 °C 1013.6 hPa NE 8.4 km/h 17.2 km/h 47% 0.0 mm
12:19 27.2 °C 14.9 °C 1013.6 hPa NNE 8.1 km/h 19 km/h 47% 0.0 mm
12:24 27.2 °C 15 °C 1013.5 hPa NNE 7.6 km/h 19.3 km/h 47.3% 0.0 mm
12:29 27.3 °C 14.6 °C 1013.5 hPa ENE 8 km/h 18.3 km/h 45.6% 0.0 mm
12:34 27.5 °C 13.3 °C 1013.6 hPa ESE 8.7 km/h 19.3 km/h 41.8% 0.0 mm
12:39 27.7 °C 13.3 °C 1013.6 hPa ESE 9.6 km/h 24.5 km/h 41.1% 0.0 mm
12:44 27.9 °C 13 °C 1013.6 hPa SE 11.1 km/h 24.1 km/h 39.9% 0.0 mm
12:49 28 °C 12.8 °C 1013.6 hPa SE 11.4 km/h 19.3 km/h 39.1% 0.0 mm
12:54 28.2 °C 12.8 °C 1013.5 hPa SE 11.9 km/h 20.4 km/h 38.8% 0.0 mm
12:59 28.1 °C 11.9 °C 1013.5 hPa SE 11.9 km/h 20.9 km/h 36.8% 0.0 mm
13:04 28.1 °C 12.8 °C 1013.5 hPa SE 11.9 km/h 24.5 km/h 38.8% 0.0 mm
13:09 28.1 °C 12.5 °C 1013.3 hPa SSE 12 km/h 24.1 km/h 38.2% 0.0 mm
13:14 28.1 °C 12.4 °C 1013.3 hPa ESE 12.2 km/h 20.9 km/h 37.9% 0.0 mm
13:19 28.1 °C 12.2 °C 1013.4 hPa ESE 12.1 km/h 25.9 km/h 37.4% 0.0 mm
13:24 28.3 °C 11.7 °C 1013.4 hPa ESE 11.9 km/h 25.7 km/h 35.9% 0.0 mm
13:29 28.3 °C 12.5 °C 1013.4 hPa ESE 12.3 km/h 25.9 km/h 37.7% 0.0 mm
13:34 28.3 °C 12.7 °C 1013.4 hPa ESE 13 km/h 25.7 km/h 38.1% 0.0 mm
13:39 28.4 °C 12.6 °C 1013.4 hPa SE 12.6 km/h 22.2 km/h 37.6% 0.0 mm
13:44 28.7 °C 12.7 °C 1013.4 hPa ESE 11.9 km/h 26.2 km/h 37.5% 0.0 mm
13:49 28.7 °C 12.9 °C 1013.4 hPa ESE 12.3 km/h 25.9 km/h 37.9% 0.0 mm
13:54 28.7 °C 12.6 °C 1013.3 hPa ESE 13 km/h 26.2 km/h 37.1% 0.0 mm
13:59 28.7 °C 13.3 °C 1013.3 hPa ESE 12.6 km/h 25.7 km/h 38.7% 0.0 mm
14:04 28.8 °C 13.8 °C 1013.3 hPa ESE 11.9 km/h 26.2 km/h 40% 0.0 mm
14:09 28.9 °C 13.9 °C 1013.0 hPa ESE 12.6 km/h 25.7 km/h 39.9% 0.0 mm
14:14 28.9 °C 14.8 °C 1013.0 hPa ESE 14 km/h 33.3 km/h 42.4% 0.0 mm
14:19 28.9 °C 15.2 °C 1013.0 hPa ESE 14 km/h 33.8 km/h 43.3% 0.0 mm
14:24 28.9 °C 15 °C 1012.7 hPa ESE 14 km/h 29.6 km/h 42.7% 0.0 mm
14:29 28.8 °C 14.8 °C 1012.7 hPa Este 14.3 km/h 29 km/h 42.6% 0.0 mm
14:34 28.8 °C 14.7 °C 1012.7 hPa ESE 14.8 km/h 29.6 km/h 42% 0.0 mm
14:39 29 °C 14.5 °C 1012.5 hPa ESE 15.1 km/h 25.9 km/h 41% 0.0 mm
14:44 29.3 °C 13.8 °C 1012.5 hPa ESE 15.6 km/h 26.2 km/h 38.8% 0.0 mm
14:49 29.1 °C 14 °C 1012.5 hPa SE 15.3 km/h 25.7 km/h 39.6% 0.0 mm
14:54 29.1 °C 14.7 °C 1012.3 hPa ESE 14.8 km/h 25.9 km/h 41.6% 0.0 mm
14:59 29.4 °C 14.8 °C 1012.3 hPa ESE 14.5 km/h 25.7 km/h 41% 0.0 mm
15:04 29.3 °C 14.8 °C 1012.3 hPa ESE 14 km/h 31.5 km/h 41.3% 0.0 mm
15:09 29.3 °C 14.9 °C 1012.1 hPa ESE 14.3 km/h 32.2 km/h 41.5% 0.0 mm
15:14 29.4 °C 15.6 °C 1012.1 hPa ESE 14.8 km/h 29.6 km/h 43.2% 0.0 mm
15:19 29.4 °C 15.4 °C 1012.1 hPa ESE 15.9 km/h 29 km/h 42.7% 0.0 mm
15:24 29.7 °C 15.5 °C 1012.1 hPa ESE 18 km/h 27.8 km/h 42.3% 0.0 mm
15:29 29.8 °C 15.3 °C 1012.1 hPa ESE 17.2 km/h 27.4 km/h 41.6% 0.0 mm
15:34 29.7 °C 15.2 °C 1012.1 hPa SE 15.6 km/h 26.2 km/h 41.4% 0.0 mm
15:39 29.8 °C 15.1 °C 1011.9 hPa SE 15.6 km/h 25.7 km/h 41.1% 0.0 mm
15:44 29.7 °C 15.1 °C 1011.9 hPa ESE 15.6 km/h 28.6 km/h 41.1% 0.0 mm
15:49 29.7 °C 15 °C 1011.9 hPa ESE 16.2 km/h 29.6 km/h 40.8% 0.0 mm
15:54 29.6 °C 14.6 °C 1011.8 hPa ESE 17.2 km/h 29.6 km/h 40.2% 0.0 mm
15:59 29.6 °C 15.1 °C 1011.8 hPa ESE 17.9 km/h 29.6 km/h 41.3% 0.0 mm
16:04 29.7 °C 14.8 °C 1011.8 hPa ESE 19 km/h 29 km/h 40.4% 0.0 mm
16:09 29.8 °C 14.7 °C 1011.6 hPa Este 18 km/h 33.3 km/h 39.6% 0.0 mm
16:14 29.9 °C 14.6 °C 1011.6 hPa Este 16.1 km/h 33.8 km/h 39.3% 0.0 mm
16:19 30.1 °C 14.2 °C 1011.6 hPa ESE 16.5 km/h 27.8 km/h 38% 0.0 mm
16:24 30.1 °C 13.5 °C 1011.5 hPa ESE 17.2 km/h 34.6 km/h 36.2% 0.0 mm
16:29 30.2 °C 12.8 °C 1011.5 hPa SE 17.6 km/h 35.4 km/h 34.6% 0.0 mm
16:34 30.3 °C 12.2 °C 1011.5 hPa SE 18.4 km/h 35.4 km/h 33% 0.0 mm
16:39 30.3 °C 12 °C 1011.3 hPa ESE 17.4 km/h 29.6 km/h 32.4% 0.0 mm
16:44 30.6 °C 11.6 °C 1011.3 hPa ESE 15.6 km/h 29.8 km/h 31.2% 0.0 mm
16:49 30.6 °C 12 °C 1011.3 hPa ESE 16 km/h 30.6 km/h 32% 0.0 mm
16:54 30.3 °C 12.5 °C 1011.2 hPa ESE 17.2 km/h 35.2 km/h 33.7% 0.0 mm
16:59 30.1 °C 13 °C 1011.2 hPa ESE 17.5 km/h 35.4 km/h 35% 0.0 mm
17:04 30.2 °C 12.9 °C 1011.2 hPa ESE 18 km/h 31.7 km/h 34.7% 0.0 mm
17:09 30.2 °C 12.7 °C 1011.1 hPa ESE 18.2 km/h 32.2 km/h 34.4% 0.0 mm
17:14 30.3 °C 13.1 °C 1011.1 hPa ESE 18.4 km/h 32.2 km/h 35% 0.0 mm
17:19 30.3 °C 13.3 °C 1011.2 hPa ESE 17.7 km/h 35.2 km/h 35.2% 0.0 mm
17:24 30.1 °C 13 °C 1011.2 hPa ESE 16.4 km/h 35.4 km/h 35.1% 0.0 mm
17:29 30.1 °C 12.9 °C 1011.2 hPa SE 17 km/h 35.4 km/h 34.9% 0.0 mm
17:34 30.2 °C 12.7 °C 1011.2 hPa SE 18 km/h 27.4 km/h 34.1% 0.0 mm
17:39 30 °C 13.1 °C 1011.2 hPa SE 18 km/h 33.3 km/h 35.4% 0.0 mm
17:44 29.8 °C 13 °C 1011.2 hPa SE 18 km/h 33.8 km/h 35.7% 0.0 mm
17:49 29.8 °C 12.8 °C 1011.2 hPa SE 18.7 km/h 32.2 km/h 35.2% 0.0 mm
17:54 29.8 °C 12.7 °C 1011.1 hPa SE 19.8 km/h 27.8 km/h 35% 0.0 mm
17:59 30 °C 12.5 °C 1011.1 hPa SE 18.8 km/h 27.4 km/h 34.2% 0.0 mm
18:04 30.1 °C 11.8 °C 1011.1 hPa ESE 17.2 km/h 25.7 km/h 32.4% 0.0 mm
18:09 30 °C 11.7 °C 1011.0 hPa SE 16.6 km/h 27.8 km/h 32.4% 0.0 mm
18:14 29.9 °C 12.4 °C 1011.0 hPa ESE 15.6 km/h 27.8 km/h 34% 0.0 mm
18:19 29.8 °C 12.7 °C 1011.0 hPa ESE 15.8 km/h 29.6 km/h 35% 0.0 mm
18:24 29.7 °C 13.1 °C 1010.9 hPa ESE 16.1 km/h 29 km/h 36.1% 0.0 mm
18:29 29.8 °C 13 °C 1010.9 hPa ESE 15.2 km/h 28.2 km/h 35.8% 0.0 mm
18:34 29.5 °C 13.2 °C 1010.9 hPa ESE 13.7 km/h 31.5 km/h 36.8% 0.0 mm
18:39 29.3 °C 13.1 °C 1010.9 hPa ESE 15.3 km/h 32.2 km/h 37% 0.0 mm
18:44 29.4 °C 13.2 °C 1010.9 hPa ESE 18.4 km/h 29.6 km/h 36.9% 0.0 mm
18:49 29.4 °C 13.3 °C 1010.9 hPa ESE 17.3 km/h 30.6 km/h 37.3% 0.0 mm
18:54 29.2 °C 13.4 °C 1010.8 hPa ESE 15.6 km/h 30.6 km/h 38% 0.0 mm
18:59 29.2 °C 13.4 °C 1010.8 hPa ESE 15.8 km/h 28.2 km/h 38% 0.0 mm
19:04 29.2 °C 13 °C 1010.8 hPa ESE 16.1 km/h 27.4 km/h 36.9% 0.0 mm
19:09 29.2 °C 12.8 °C 1010.8 hPa SE 15.7 km/h 28.6 km/h 36.5% 0.0 mm
19:14 29 °C 12.7 °C 1010.8 hPa ESE 14.8 km/h 31.5 km/h 36.7% 0.0 mm
19:19 29.1 °C 12.8 °C 1010.8 hPa ESE 15.4 km/h 32.2 km/h 36.8% 0.0 mm
19:24 29.2 °C 12.1 °C 1010.7 hPa ESE 16.4 km/h 24.1 km/h 34.8% 0.0 mm
19:29 29.2 °C 11.6 °C 1010.7 hPa ESE 14.8 km/h 20.9 km/h 33.7% 0.0 mm
19:34 29.2 °C 11.4 °C 1010.8 hPa ESE 11.9 km/h 24.1 km/h 33.4% 0.0 mm
19:39 29.1 °C 11.6 °C 1010.8 hPa ESE 12.3 km/h 24.1 km/h 34% 0.0 mm
19:44 29.1 °C 11.6 °C 1010.8 hPa ESE 13 km/h 20.9 km/h 34% 0.0 mm
19:49 29.1 °C 11.6 °C 1010.8 hPa ESE 12.7 km/h 24.1 km/h 34% 0.0 mm
19:54 28.8 °C 11.7 °C 1010.8 hPa ENE 12.2 km/h 24.1 km/h 34.6% 0.0 mm
19:59 28.8 °C 12.6 °C 1010.8 hPa ENE 11.5 km/h 22.5 km/h 37% 0.0 mm
20:04 28.5 °C 12.6 °C 1010.9 hPa ENE 10.3 km/h 22.5 km/h 37.5% 0.0 mm
20:09 28.5 °C 11.6 °C 1010.9 hPa ENE 10.3 km/h 19 km/h 35.3% 0.0 mm
20:14 28.4 °C 11.5 °C 1010.9 hPa NE 10.3 km/h 24.5 km/h 35.1% 0.0 mm
20:19 28.2 °C 13.2 °C 1011.0 hPa NE 11.6 km/h 24.5 km/h 39.8% 0.0 mm
20:24 27.8 °C 14.2 °C 1011.0 hPa NE 14 km/h 29.6 km/h 43.5% 0.0 mm
20:29 27.5 °C 14.2 °C 1011.0 hPa NE 14.7 km/h 29 km/h 44.2% 0.0 mm
20:34 27.2 °C 14.5 °C 1011.2 hPa NE 16.1 km/h 25.9 km/h 46% 0.0 mm
20:39 27 °C 14.6 °C 1011.2 hPa NE 16.2 km/h 27.4 km/h 46.7% 0.0 mm
20:44 26.7 °C 14.6 °C 1011.2 hPa NE 16.4 km/h 27.8 km/h 47.6% 0.0 mm
20:49 26.5 °C 15 °C 1011.2 hPa NE 16.7 km/h 27.4 km/h 49.4% 0.0 mm
20:54 26.3 °C 15.1 °C 1011.2 hPa NE 17.2 km/h 25.7 km/h 50.1% 0.0 mm
20:59 26.1 °C 15.4 °C 1011.2 hPa NE 16.6 km/h 24.1 km/h 51.5% 0.0 mm
21:04 25.8 °C 15.6 °C 1011.3 hPa NE 15.6 km/h 25.9 km/h 53.3% 0.0 mm
21:09 25.6 °C 15.7 °C 1011.3 hPa NE 15.9 km/h 25.7 km/h 54.4% 0.0 mm
21:14 25.3 °C 15.7 °C 1011.3 hPa NE 16.4 km/h 24.5 km/h 55.2% 0.0 mm
21:19 25.1 °C 15.8 °C 1011.5 hPa NE 16.1 km/h 24.1 km/h 56.1% 0.0 mm
21:24 24.9 °C 15.8 °C 1011.5 hPa NE 15.6 km/h 24.1 km/h 57% 0.0 mm
21:29 24.7 °C 16 °C 1011.5 hPa NE 14.7 km/h 22.2 km/h 58.2% 0.0 mm
21:34 24.6 °C 16.1 °C 1011.5 hPa ENE 13 km/h 22.5 km/h 59% 0.0 mm
21:39 24.6 °C 16.1 °C 1011.5 hPa ENE 11.8 km/h 18.5 km/h 59.1% 0.0 mm
21:44 24.5 °C 16.3 °C 1011.5 hPa NE 9.5 km/h 19.3 km/h 60.3% 0.0 mm
21:49 24.3 °C 16.3 °C 1011.6 hPa ENE 9.5 km/h 19.3 km/h 61.1% 0.0 mm
21:54 24.2 °C 16.5 °C 1011.6 hPa ENE 9.5 km/h 14.8 km/h 62% 0.0 mm
21:59 24.2 °C 16.6 °C 1011.6 hPa ENE 9.1 km/h 18.3 km/h 62.8% 0.0 mm
22:04 24.1 °C 16.7 °C 1011.8 hPa NE 8.4 km/h 19.3 km/h 63.4% 0.0 mm
22:09 24 °C 16.8 °C 1011.8 hPa NE 8.8 km/h 18.5 km/h 64% 0.0 mm
22:14 23.8 °C 16.8 °C 1011.8 hPa NE 9.5 km/h 19.3 km/h 64.8% 0.0 mm
22:19 23.7 °C 16.8 °C 1012.0 hPa ENE 9.6 km/h 19.3 km/h 65.3% 0.0 mm
22:24 23.6 °C 16.6 °C 1012.0 hPa NE 10 km/h 19.3 km/h 65% 0.0 mm
22:29 23.5 °C 16.6 °C 1012.0 hPa NE 10.1 km/h 17.7 km/h 65% 0.0 mm
22:34 23.4 °C 16.8 °C 1012.2 hPa NE 10.3 km/h 17.7 km/h 66.7% 0.0 mm
22:39 23.2 °C 17 °C 1012.2 hPa NE 9.9 km/h 17.7 km/h 68.2% 0.0 mm
22:44 22.9 °C 16.9 °C 1012.2 hPa NE 8.7 km/h 14.8 km/h 68.9% 0.0 mm
22:49 22.8 °C 17 °C 1012.4 hPa NE 9 km/h 16.7 km/h 69.9% 0.0 mm
22:54 22.7 °C 16.9 °C 1012.4 hPa NE 9.5 km/h 16.1 km/h 69.9% 0.0 mm
22:59 22.7 °C 16.9 °C 1012.4 hPa NE 9.2 km/h 16.1 km/h 70% 0.0 mm
23:04 22.7 °C 16.9 °C 1012.6 hPa NE 8.7 km/h 14.8 km/h 70% 0.0 mm
23:09 22.6 °C 17 °C 1012.6 hPa NE 9 km/h 14.8 km/h 70.9% 0.0 mm
23:14 22.4 °C 17.1 °C 1012.6 hPa NE 9.5 km/h 22.2 km/h 71.8% 0.0 mm
23:19 22.3 °C 17 °C 1012.7 hPa NNE 9.7 km/h 22.5 km/h 72% 0.0 mm
23:24 22.2 °C 16.9 °C 1012.7 hPa NNE 10 km/h 14.8 km/h 72.4% 0.0 mm
23:29 22 °C 16.9 °C 1012.7 hPa NE 9.5 km/h 14.8 km/h 73% 0.0 mm
23:34 21.9 °C 17 °C 1012.9 hPa NNE 8.7 km/h 18.5 km/h 74% 0.0 mm
23:39 21.7 °C 17.1 °C 1012.9 hPa NNE 9.2 km/h 19.3 km/h 75% 0.0 mm
23:44 21.7 °C 17.2 °C 1012.9 hPa NE 10 km/h 16.7 km/h 75.9% 0.0 mm
23:49 21.6 °C 17.2 °C 1012.9 hPa NE 9.5 km/h 14.5 km/h 76.2% 0.0 mm
23:54 21.5 °C 17.3 °C 1012.8 hPa NNE 8.7 km/h 13.7 km/h 77% 0.0 mm
23:59 21.5 °C 17.3 °C 1012.8 hPa NNE 8.6 km/h 14.5 km/h 77% 0.0 mm
Murcia-Puente Tocinos, España
Compliments of Weather Underground - 3 mb

La estación de MeteoMurcia.com, publica sus datos en los siguientes proyectos:

Weather Underground PWS IMURCIAP2 Meteoclimatic www.awekas.at

W3Counter
Web Analytics